Terminal Aerodrome Forecast
Issued by NWS

Current Version | Previous Version | Graphics & Text | Print | Product List | Glossary On
Versions: 1 2 3 4 5 6 7 8 9 10 11 12 13 14 15 16 17 18 19 20 21 22 23 24 25 26 27 28 29 30 31 32 33 34 35 36 37 38 39 40 41
000
FTUS41 KRNK 230800 AAA
TAFLWB
TAF AMD
KLWB 230800Z 2308/2406 02004KT 2SM -DZ BR OVC004
      TEMPO 2308/2310 4SM -RA BR SCT002 OVC006
     FM231500 VRB03KT P6SM SCT007 OVC020
      TEMPO 2315/2318 BKN007
     FM240200 00000KT 4SM -RA BR OVC007=

USA.gov is the U.S. government's official web portal to all federal, state and local government web resources and services.